Time;durP1;ratioP1;P1;durP2;ratioP2;P2;SDS_P1;SDS_P2;PMS_P1;PMS_P2;Temp;Humidity;BMP_temperature;BMP_pressure;BME280_temperature;BME280_humidity;BME280_pressure;Samples;Min_cycle;Max_cycle;Signal;HPM_P1;HPM_P2
2022/03/28 00:00:07;;;;;;;16.98;5.72;;;;;;;11.27;45.67;102658.63;4949246;28;123620;-62
2022/03/28 00:02:41;;;;;;;12.93;5.53;;;;;;;11.23;46.00;102656.94;4928895;28;115182;-62
2022/03/28 00:05:09;;;;;;;19.55;6.05;;;;;;;11.18;45.97;102658.81;4934919;28;114654;-61
2022/03/28 00:07:37;;;;;;;21.23;5.80;;;;;;;11.13;46.07;102656.22;4950653;28;123932;-62
2022/03/28 00:10:04;;;;;;;16.05;6.28;;;;;;;11.07;46.18;102651.91;4949345;28;123845;-62
2022/03/28 00:12:33;;;;;;;15.75;5.82;;;;;;;11.02;46.21;102659.09;4952389;28;114292;-61
2022/03/28 00:15:01;;;;;;;18.08;5.88;;;;;;;10.96;46.47;102653.88;4950145;28;114181;-61
2022/03/28 00:17:31;;;;;;;14.50;5.50;;;;;;;10.91;46.37;102648.66;4926649;28;123010;-61
2022/03/28 00:20:00;;;;;;;14.25;5.28;;;;;;;10.88;46.15;102645.19;4934446;28;124710;-61
2022/03/28 00:22:28;;;;;;;15.50;5.90;;;;;;;10.86;46.60;102636.38;4951650;28;115469;-61
2022/03/28 00:24:55;;;;;;;21.02;6.10;;;;;;;10.84;46.50;102630.25;4949737;28;113846;-61
2022/03/28 00:27:22;;;;;;;15.48;5.18;;;;;;;10.81;46.34;102622.34;4949150;28;123936;-61
2022/03/28 00:29:50;;;;;;;16.73;5.90;;;;;;;10.80;46.89;102617.94;4951113;28;124247;-62
2022/03/28 00:32:17;;;;;;;14.57;5.85;;;;;;;10.77;46.63;102615.34;4950716;28;115376;-61
2022/03/28 00:34:44;;;;;;;12.63;5.25;;;;;;;10.75;47.00;102619.78;4932241;28;114043;-61
2022/03/28 00:37:11;;;;;;;14.43;5.10;;;;;;;10.74;46.63;102615.38;4950734;28;124780;-61
2022/03/28 00:39:38;;;;;;;10.25;5.18;;;;;;;10.70;46.91;102604.84;4951281;28;124155;-61
2022/03/28 00:42:06;;;;;;;15.00;6.03;;;;;;;10.66;46.83;102603.16;4951925;28;114314;-61
2022/03/28 00:44:34;;;;;;;13.15;5.07;;;;;;;10.61;46.86;102607.66;4952817;28;114014;-61
2022/03/28 00:47:01;;;;;;;16.00;5.15;;;;;;;10.56;46.83;102606.84;4947725;28;124841;-61
2022/03/28 00:49:28;;;;;;;15.50;5.00;;;;;;;10.51;46.83;102598.13;4949285;28;124087;-61
2022/03/28 00:51:55;;;;;;;18.80;5.75;;;;;;;10.47;46.74;102601.69;4948160;28;115141;-61
2022/03/28 00:54:23;;;;;;;16.77;6.13;;;;;;;10.42;46.86;102587.69;4952262;28;114882;-61
2022/03/28 00:56:50;;;;;;;14.57;5.60;;;;;;;10.37;47.25;102589.53;4951667;28;124213;-62
2022/03/28 00:59:18;;;;;;;15.77;5.20;;;;;;;10.34;46.88;102590.47;4949858;28;124332;-61
2022/03/28 01:01:46;;;;;;;14.57;5.90;;;;;;;10.31;47.22;102586.06;4945759;28;114285;-61
2022/03/28 01:04:14;;;;;;;14.35;5.60;;;;;;;10.28;46.98;102580.81;4951818;28;114450;-61
2022/03/28 01:06:42;;;;;;;16.17;5.68;;;;;;;10.27;47.07;102575.53;4948293;28;125039;-61
2022/03/28 01:09:09;;;;;;;17.63;6.07;;;;;;;10.25;47.24;102572.91;4948968;28;124747;-61
2022/03/28 01:11:37;;;;;;;18.05;5.78;;;;;;;10.23;47.58;102564.09;4930917;28;114609;-61
2022/03/28 01:14:04;;;;;;;16.95;6.00;;;;;;;10.22;47.41;102564.97;4948700;28;114653;-61
2022/03/28 01:18:05;;;;;;;17.05;5.82;;;;;;;10.20;47.37;102556.19;4948255;28;124088;-62
2022/03/28 01:19:26;;;;;;;16.42;5.70;;;;;;;10.18;47.54;102558.00;4948188;28;125142;-65
2022/03/28 01:21:53;;;;;;;15.85;5.70;;;;;;;10.16;47.28;102565.09;4948142;28;114921;-61
2022/03/28 01:24:21;;;;;;;16.02;5.43;;;;;;;10.15;47.70;102558.03;4926000;28;113960;-61
2022/03/28 01:26:49;;;;;;;15.23;5.53;;;;;;;10.13;47.71;102560.72;4928350;28;124064;-61
2022/03/28 01:29:17;;;;;;;19.40;5.72;;;;;;;10.11;47.67;102561.63;4947989;28;123762;-61
2022/03/28 01:31:44;;;;;;;14.60;5.93;;;;;;;10.10;47.94;102551.97;4945718;28;114282;-61
2022/03/28 01:34:18;;;;;;;14.60;5.20;;;;;;;10.09;48.10;102553.69;4950335;28;114291;-61
2022/03/28 01:36:47;;;;;;;13.60;5.53;;;;;;;10.10;47.66;102551.97;4947623;28;123175;-61
2022/03/28 01:39:15;;;;;;;16.50;5.93;;;;;;;10.09;48.08;102558.13;4949296;28;124045;-61
2022/03/28 01:41:43;;;;;;;15.05;6.07;;;;;;;10.07;48.06;102544.06;4946581;28;114933;-61
2022/03/28 01:44:10;;;;;;;20.50;6.28;;;;;;;10.08;48.14;102545.81;4950826;28;115280;-61
2022/03/28 01:46:45;;;;;;;16.77;5.90;;;;;;;10.07;48.28;102544.06;4930930;28;124491;-61
2022/03/28 01:49:17;;;;;;;19.95;6.90;;;;;;;10.08;48.26;102545.81;4933588;28;123687;-61
2022/03/28 01:51:46;;;;;;;16.70;6.30;;;;;;;10.05;48.16;102541.41;4947190;28;114601;-61
2022/03/28 01:54:14;;;;;;;19.92;5.72;;;;;;;10.06;48.08;102534.38;4949983;28;113696;-61
2022/03/28 01:56:42;;;;;;;22.75;6.10;;;;;;;10.07;48.25;102533.47;4948401;28;124691;-61
2022/03/28 01:59:10;;;;;;;16.48;5.85;;;;;;;10.06;48.27;102526.44;4948177;28;123986;-61
2022/03/28 02:01:37;;;;;;;19.55;6.15;;;;;;;10.05;48.43;102529.97;4948434;28;115492;-61
2022/03/28 02:04:05;;;;;;;16.40;5.55;;;;;;;10.03;48.44;102531.75;4950811;28;114464;-61
2022/03/28 02:06:35;;;;;;;19.25;6.10;;;;;;;10.01;48.49;102531.78;4947964;28;125872;-61
2022/03/28 02:09:03;;;;;;;18.95;6.60;;;;;;;10.01;48.62;102522.97;4950243;28;124341;-61
2022/03/28 02:11:30;;;;;;;16.95;6.55;;;;;;;10.00;48.50;102521.22;4932443;28;114044;-61
2022/03/28 02:13:58;;;;;;;17.33;6.82;;;;;;;10.00;48.68;102523.84;4917302;28;113384;-61
2022/03/28 02:16:25;;;;;;;17.33;6.38;;;;;;;10.00;48.60;102518.56;4947896;28;123988;-61
2022/03/28 02:18:52;;;;;;;18.73;6.38;;;;;;;10.00;48.94;102515.91;4930635;28;123622;-61
2022/03/28 02:21:19;;;;;;;21.13;6.43;;;;;;;9.98;48.55;102512.44;4929206;28;114852;-61
2022/03/28 02:23:46;;;;;;;17.30;6.28;;;;;;;9.97;48.97;102510.69;4950639;28;114065;-61
2022/03/28 02:26:14;;;;;;;15.23;6.30;;;;;;;9.97;48.65;102510.69;4927110;28;123612;-61
2022/03/28 02:28:41;;;;;;;16.40;6.53;;;;;;;9.96;49.10;102508.94;4950231;28;123060;-61
2022/03/28 02:31:10;;;;;;;15.73;6.15;;;;;;;9.95;49.09;102510.72;4945884;28;115200;-62
2022/03/28 02:33:37;;;;;;;24.17;6.55;;;;;;;9.94;48.90;102507.19;4949709;28;114914;-61
2022/03/28 02:36:05;;;;;;;19.13;6.07;;;;;;;9.93;48.82;102502.78;4949656;28;124045;-61
2022/03/28 02:38:33;;;;;;;20.10;6.43;;;;;;;9.91;49.07;102501.06;4950042;28;123582;-60
2022/03/28 02:41:01;;;;;;;16.17;6.00;;;;;;;9.90;49.15;102500.19;4949620;28;115115;-61
2022/03/28 02:43:28;;;;;;;17.50;6.60;;;;;;;9.88;49.29;102496.69;4949733;28;114069;-61
2022/03/28 02:45:55;;;;;;;21.80;6.32;;;;;;;9.85;49.28;102485.28;4947480;28;124087;-61
2022/03/28 02:48:22;;;;;;;15.88;5.80;;;;;;;9.84;49.29;102489.69;4948033;28;123571;-61
2022/03/28 02:50:50;;;;;;;16.27;6.32;;;;;;;9.83;49.36;102482.69;4944721;28;114125;-61
2022/03/28 02:53:17;;;;;;;19.40;5.90;;;;;;;9.83;49.40;102487.06;4950664;28;113838;-61
2022/03/28 02:55:45;;;;;;;19.27;5.72;;;;;;;9.82;49.05;102474.75;4946898;28;124092;-61
2022/03/28 02:58:12;;;;;;;20.27;6.28;;;;;;;9.80;49.13;102477.41;4947928;28;125739;-61
2022/03/28 03:00:40;;;;;;;17.60;6.00;;;;;;;9.78;49.44;102473.94;4946063;28;114269;-61
2022/03/28 03:03:07;;;;;;;15.98;6.53;;;;;;;9.77;49.40;102477.44;4946957;28;114377;-61
2022/03/28 03:05:35;;;;;;;21.40;6.63;;;;;;;9.77;49.54;102476.59;4950046;28;124265;-61
2022/03/28 03:08:02;;;;;;;18.45;6.72;;;;;;;9.75;49.12;102473.97;4942138;28;123830;-62
2022/03/28 03:10:30;;;;;;;13.05;5.43;;;;;;;9.73;49.21;102470.47;4916223;28;113316;-61
2022/03/28 03:12:57;;;;;;;19.77;6.05;;;;;;;9.71;49.22;102472.25;4948897;28;114769;-61
2022/03/28 03:15:24;;;;;;;14.27;5.93;;;;;;;9.68;49.31;102477.59;4947015;28;124142;-61
2022/03/28 03:17:51;;;;;;;13.02;5.68;;;;;;;9.68;49.21;102480.22;4947006;28;124418;-61
2022/03/28 03:20:18;;;;;;;15.77;6.13;;;;;;;9.64;49.51;102471.47;4948555;28;115079;-61
2022/03/28 03:22:45;;;;;;;16.52;6.13;;;;;;;9.63;49.49;102468.88;4949930;28;114697;-62
2022/03/28 03:25:12;;;;;;;18.10;5.60;;;;;;;9.62;49.67;102467.09;4946977;28;124058;-62
2022/03/28 03:27:40;;;;;;;18.80;5.90;;;;;;;9.61;49.67;102460.94;4946921;28;124719;-62
2022/03/28 03:30:08;;;;;;;18.63;5.50;;;;;;;9.59;49.68;102461.84;4948321;28;114701;-61
2022/03/28 03:32:36;;;;;;;17.52;6.13;;;;;;;9.58;49.64;102460.13;4947120;28;113856;-62
2022/03/28 03:35:04;;;;;;;19.65;6.25;;;;;;;9.56;49.68;102452.19;4947022;28;125400;-62
2022/03/28 03:37:31;;;;;;;18.27;5.68;;;;;;;9.54;49.65;102449.56;4947292;28;124500;-62
2022/03/28 03:39:58;;;;;;;16.38;6.25;;;;;;;9.51;49.91;102449.63;4946279;28;114087;-61
2022/03/28 03:42:25;;;;;;;14.95;5.28;;;;;;;9.49;50.03;102451.44;4934173;28;113024;-61
2022/03/28 03:44:52;;;;;;;17.92;5.45;;;;;;;9.46;49.87;102440.88;4951637;28;124409;-61
2022/03/28 03:47:19;;;;;;;19.05;5.70;;;;;;;9.44;50.02;102447.97;4952635;28;124233;-61
2022/03/28 03:49:47;;;;;;;14.50;5.75;;;;;;;9.41;50.07;102440.06;4927168;28;114180;-61
2022/03/28 03:52:14;;;;;;;17.92;5.80;;;;;;;9.40;50.15;102435.69;4950526;28;114045;-61
2022/03/28 03:54:41;;;;;;;16.63;5.45;;;;;;;9.39;49.90;102436.59;4951052;28;124274;-61
2022/03/28 03:57:08;;;;;;;19.10;5.82;;;;;;;9.36;49.91;102439.25;4951501;28;123829;-60
2022/03/28 03:59:35;;;;;;;18.05;5.88;;;;;;;9.35;50.14;102440.16;4952481;28;114381;-61
2022/03/28 04:02:03;;;;;;;19.00;5.55;;;;;;;9.33;50.07;102439.31;4952689;28;114239;-61
2022/03/28 04:04:30;;;;;;;16.80;5.85;;;;;;;9.30;49.94;102434.94;4952678;28;124662;-60
2022/03/28 04:06:57;;;;;;;14.02;5.57;;;;;;;9.28;49.66;102441.16;4950914;28;124411;-61
2022/03/28 04:09:24;;;;;;;15.55;5.53;;;;;;;9.26;49.67;102440.28;4951204;28;115954;-60
2022/03/28 04:11:52;;;;;;;14.25;5.45;;;;;;;9.24;49.86;102428.88;4952209;28;114942;-61
2022/03/28 04:14:19;;;;;;;17.98;5.63;;;;;;;9.23;50.17;102421.81;4952516;28;124121;-61
2022/03/28 04:16:46;;;;;;;15.77;5.28;;;;;;;9.20;50.16;102422.75;4949429;28;124272;-61
2022/03/28 04:19:14;;;;;;;16.38;5.22;;;;;;;9.16;49.83;102427.19;4934927;28;113032;-61
2022/03/28 04:21:43;;;;;;;12.57;5.10;;;;;;;9.13;50.09;102432.53;4949478;28;113941;-61
2022/03/28 04:24:10;;;;;;;16.20;5.22;;;;;;;9.09;50.20;102422.88;4952347;28;124233;-62
2022/03/28 04:26:37;;;;;;;17.70;5.20;;;;;;;9.08;49.83;102434.38;4950018;28;124095;-62
2022/03/28 04:29:04;;;;;;;15.02;5.63;;;;;;;9.04;50.27;102432.66;4930021;28;114304;-62
2022/03/28 04:31:31;;;;;;;15.68;5.38;;;;;;;9.01;50.06;102419.47;4952121;28;113990;-62
2022/03/28 04:33:58;;;;;;;13.10;5.00;;;;;;;8.98;50.46;102416.88;4934398;28;124230;-61
2022/03/28 04:36:26;;;;;;;19.92;5.47;;;;;;;8.94;50.31;102415.16;4950777;28;124179;-62
2022/03/28 04:38:53;;;;;;;15.23;5.07;;;;;;;8.91;50.29;102409.91;4951558;28;114664;-61
2022/03/28 04:41:20;;;;;;;16.67;5.80;;;;;;;8.89;50.51;102411.69;4933775;28;113880;-61
2022/03/28 04:43:47;;;;;;;16.17;5.10;;;;;;;8.88;50.51;102420.53;4952014;28;124944;-61
2022/03/28 04:46:14;;;;;;;18.88;5.20;;;;;;;8.88;50.92;102415.25;4949512;28;124604;-61
2022/03/28 04:48:47;;;;;;;19.00;5.05;;;;;;;8.88;50.69;102420.53;4947156;28;114870;-62
2022/03/28 04:51:15;;;;;;;21.35;5.13;;;;;;;8.87;50.98;102418.78;4949431;28;114384;-61
2022/03/28 04:53:42;;;;;;;14.85;5.20;;;;;;;8.86;50.83;102417.03;4950257;28;125050;-62
2022/03/28 04:56:09;;;;;;;18.73;5.38;;;;;;;8.83;51.17;102411.78;4951867;28;123710;-61
2022/03/28 04:58:36;;;;;;;13.65;5.00;;;;;;;8.80;50.87;102417.09;4951668;28;114882;-60
2022/03/28 05:01:08;;;;;;;19.20;5.45;;;;;;;8.77;51.32;102408.31;4949069;28;115338;-62
2022/03/28 05:03:36;;;;;;;16.85;5.05;;;;;;;8.76;51.04;102417.16;4932966;28;123825;-61
2022/03/28 05:06:03;;;;;;;12.32;4.78;;;;;;;8.75;51.20;102415.38;4947599;28;123987;-61
2022/03/28 05:08:30;;;;;;;18.30;5.93;;;;;;;8.74;51.42;102411.03;4949228;28;114198;-61
2022/03/28 05:10:57;;;;;;;19.45;5.47;;;;;;;8.73;51.23;102417.19;4948358;28;114012;-61
2022/03/28 05:13:25;;;;;;;20.45;5.47;;;;;;;8.71;51.31;102421.59;4949401;28;124310;-61
2022/03/28 05:15:53;;;;;;;22.02;5.38;;;;;;;8.71;51.18;102413.69;4948617;28;124824;-61
2022/03/28 05:18:20;;;;;;;18.65;5.32;;;;;;;8.71;51.29;102413.69;4948525;28;114579;-61
2022/03/28 05:20:47;;;;;;;15.90;5.13;;;;;;;8.73;51.69;102417.19;4947686;28;114168;-61
2022/03/28 05:23:14;;;;;;;13.65;5.22;;;;;;;8.73;51.48;102411.91;4949676;28;123859;-61
2022/03/28 05:25:41;;;;;;;22.27;5.20;;;;;;;8.71;51.51;102418.97;4948596;28;124239;-60
2022/03/28 05:28:09;;;;;;;18.00;5.28;;;;;;;8.70;51.26;102414.59;4950478;28;114306;-60
2022/03/28 05:30:36;;;;;;;18.13;5.40;;;;;;;8.71;51.57;102418.97;4949859;28;113932;-61
2022/03/28 05:33:04;;;;;;;13.68;5.22;;;;;;;8.69;51.19;102415.47;4950487;28;124649;-60
2022/03/28 05:35:31;;;;;;;17.83;5.50;;;;;;;8.68;51.45;102408.47;4948876;28;123833;-60
2022/03/28 05:37:59;;;;;;;17.15;5.50;;;;;;;8.66;51.09;102414.63;4952026;28;114607;-60
2022/03/28 05:40:26;;;;;;;16.52;5.25;;;;;;;8.63;51.56;102399.72;4949267;28;114479;-59
2022/03/28 05:42:53;;;;;;;16.40;5.30;;;;;;;8.62;51.32;102403.22;4949697;28;123842;-59
2022/03/28 05:45:21;;;;;;;14.63;5.35;;;;;;;8.61;51.65;102411.16;4932950;28;123734;-59
2022/03/28 05:47:48;;;;;;;21.73;5.30;;;;;;;8.59;51.77;102398.00;4948869;28;115401;-59
2022/03/28 05:50:15;;;;;;;19.38;5.82;;;;;;;8.60;51.92;102396.22;4951374;28;115332;-59
2022/03/28 05:52:42;;;;;;;21.80;5.65;;;;;;;8.59;52.01;102398.00;4951658;28;124383;-59
2022/03/28 05:55:10;;;;;;;19.63;5.63;;;;;;;8.60;51.98;102405.00;4949346;28;123949;-59
2022/03/28 05:57:37;;;;;;;17.08;5.70;;;;;;;8.61;52.02;102408.53;4918193;28;114164;-60
2022/03/28 06:00:07;;;;;;;17.48;5.32;;;;;;;8.61;52.06;102406.78;4947038;28;113186;-60
2022/03/28 06:02:38;;;;;;;14.45;5.03;;;;;;;8.64;52.07;102401.44;4948393;28;125563;-59
2022/03/28 06:05:06;;;;;;;14.98;5.35;;;;;;;8.67;51.96;102406.69;4945971;28;123891;-60
2022/03/28 06:07:33;;;;;;;19.63;6.25;;;;;;;8.68;52.16;102400.53;4949089;28;113313;-60
2022/03/28 06:10:01;;;;;;;18.58;5.68;;;;;;;8.72;52.05;102399.59;4949139;28;113904;-59
2022/03/28 06:12:28;;;;;;;18.95;5.63;;;;;;;8.76;52.16;102395.16;4949452;28;124048;-60
2022/03/28 06:14:55;;;;;;;18.17;5.72;;;;;;;8.79;52.19;102404.78;4950455;28;124285;-60
2022/03/28 06:17:24;;;;;;;18.60;6.32;;;;;;;8.81;52.41;102403.00;4948704;28;114191;-60
2022/03/28 06:19:52;;;;;;;20.02;5.38;;;;;;;8.82;52.81;102394.19;4948254;28;114397;-60
2022/03/28 06:22:19;;;;;;;24.85;6.00;;;;;;;8.85;52.69;102399.44;4948610;28;124001;-60
2022/03/28 06:24:47;;;;;;;22.92;6.18;;;;;;;8.90;52.95;102397.59;4947162;28;124462;-60
2022/03/28 06:27:14;;;;;;;22.63;6.43;;;;;;;8.95;52.68;102388.72;4933865;28;113238;-59
2022/03/28 06:29:41;;;;;;;23.90;6.47;;;;;;;9.01;52.85;102385.13;4933309;28;113239;-59
2022/03/28 06:32:09;;;;;;;22.88;5.93;;;;;;;9.06;53.10;102385.94;4947641;28;124119;-60
2022/03/28 06:34:36;;;;;;;23.92;6.72;;;;;;;9.10;52.97;102395.56;4948084;28;126579;-61
2022/03/28 06:37:03;;;;;;;19.38;6.57;;;;;;;9.16;53.19;102395.47;4947923;28;115017;-61
2022/03/28 06:39:31;;;;;;;21.08;6.43;;;;;;;9.24;53.22;102389.22;4948391;28;115235;-61
2022/03/28 06:41:58;;;;;;;17.95;6.25;;;;;;;9.32;53.37;102384.69;4949433;28;124413;-61
2022/03/28 06:44:25;;;;;;;20.55;6.30;;;;;;;9.39;53.42;102391.63;4949073;28;123661;-60
2022/03/28 06:46:52;;;;;;;19.08;6.63;;;;;;;9.45;53.32;102391.53;4949779;28;115134;-61
2022/03/28 06:49:19;;;;;;;24.13;6.43;;;;;;;9.49;53.15;102382.66;4948259;28;114311;-61
2022/03/28 06:51:46;;;;;;;18.38;6.22;;;;;;;9.55;53.60;102384.34;4930023;28;123280;-60
2022/03/28 06:54:15;;;;;;;21.20;6.57;;;;;;;9.61;53.44;102380.72;4949442;28;123917;-61
2022/03/28 06:56:45;;;;;;;22.85;6.68;;;;;;;9.68;53.69;102377.06;4948464;28;114402;-61
2022/03/28 06:59:12;;;;;;;25.88;6.30;;;;;;;9.77;53.91;102374.25;4925496;28;113305;-62
2022/03/28 07:01:41;;;;;;;15.70;6.45;;;;;;;9.84;53.94;102377.69;4947434;28;124629;-61
2022/03/28 07:04:12;;;;;;;21.30;7.05;;;;;;;9.90;53.76;102373.16;4948145;28;123897;-62
2022/03/28 07:06:39;;;;;;;19.05;6.93;;;;;;;9.98;53.78;102380.09;4927846;28;113384;-61
2022/03/28 07:09:12;;;;;;;14.32;6.28;;;;;;;10.08;54.10;102376.38;4928717;28;113073;-61
2022/03/28 07:11:39;;;;;;;22.58;7.00;;;;;;;10.21;54.15;102372.59;4947003;28;124103;-60
2022/03/28 07:14:07;;;;;;;16.83;6.53;;;;;;;10.31;53.86;102379.50;4950206;28;124404;-61
2022/03/28 07:16:34;;;;;;;21.92;7.00;;;;;;;10.43;54.06;102366.91;4949151;28;114179;-61
2022/03/28 07:19:03;;;;;;;19.80;6.72;;;;;;;10.51;53.99;102370.31;4934288;28;114021;-61
2022/03/28 07:21:31;;;;;;;23.30;7.47;;;;;;;10.60;53.90;102364.78;4935598;28;123250;-62
2022/03/28 07:23:59;;;;;;;18.92;7.03;;;;;;;10.67;54.25;102361.13;4954127;28;123892;-61
2022/03/28 07:26:26;;;;;;;18.08;6.82;;;;;;;10.76;54.29;102359.19;4954288;28;115277;-62
2022/03/28 07:28:58;;;;;;;18.40;6.65;;;;;;;10.84;54.03;102357.25;4950978;28;114813;-60
2022/03/28 07:31:25;;;;;;;17.67;6.80;;;;;;;10.94;54.28;102353.47;4951721;28;124018;-60
2022/03/28 07:34:29;;;;;;;16.88;6.72;;;;;;;11.06;54.24;102355.84;4953684;28;124650;-61
2022/03/28 07:36:39;;;;;;;19.90;7.55;;;;;;;11.18;53.97;102351.19;4954527;28;114591;-60
2022/03/28 07:39:06;;;;;;;22.02;7.65;;;;;;;11.27;53.55;102357.13;4954779;28;113681;-61
2022/03/28 07:41:33;;;;;;;19.08;7.75;;;;;;;11.34;53.69;102352.56;4951786;28;124402;-61
2022/03/28 07:44:01;;;;;;;20.08;7.75;;;;;;;11.40;53.64;102347.09;4953777;28;124261;-61
2022/03/28 07:46:28;;;;;;;25.38;8.10;;;;;;;11.48;53.66;102345.13;4953926;28;114433;-61
2022/03/28 07:48:55;;;;;;;18.88;7.22;;;;;;;11.62;53.78;102346.56;4951969;28;114376;-61
2022/03/28 07:51:22;;;;;;;17.13;7.20;;;;;;;11.73;53.27;102344.50;4952858;28;124225;-62
2022/03/28 07:53:50;;;;;;;19.48;7.22;;;;;;;11.83;53.46;102343.38;4953902;28;123991;-62
2022/03/28 07:56:17;;;;;;;17.55;7.15;;;;;;;11.96;53.33;102335.09;4952614;28;114299;-62
2022/03/28 07:58:44;;;;;;;18.95;7.57;;;;;;;12.07;53.28;102333.03;4934298;28;114077;-62
2022/03/28 08:01:11;;;;;;;21.35;7.45;;;;;;;12.15;53.45;102331.03;4952540;28;124339;-62
2022/03/28 08:03:39;;;;;;;20.63;7.78;;;;;;;12.24;53.11;102325.47;4936457;28;123560;-62
2022/03/28 08:06:06;;;;;;;22.15;8.13;;;;;;;12.34;53.17;102331.41;4936634;28;113426;-62
2022/03/28 08:08:35;;;;;;;23.98;8.13;;;;;;;12.45;53.01;102324.00;4951910;28;114227;-62
2022/03/28 08:11:05;;;;;;;20.65;7.93;;;;;;;12.61;53.10;102319.06;4950775;28;123921;-63
2022/03/28 08:13:36;;;;;;;19.05;7.78;;;;;;;12.76;53.18;102327.53;4953189;28;123626;-62
2022/03/28 08:16:04;;;;;;;17.83;8.57;;;;;;;12.89;52.82;102323.56;4951255;28;115545;-62
2022/03/28 08:18:32;;;;;;;23.48;8.13;;;;;;;13.00;52.86;102331.22;4954348;28;115825;-62
2022/03/28 08:20:59;;;;;;;22.45;8.88;;;;;;;13.14;52.76;102317.47;4949655;28;123883;-62
2022/03/28 08:23:27;;;;;;;19.73;8.40;;;;;;;13.26;52.40;102317.09;4951575;28;124260;-62
2022/03/28 08:25:54;;;;;;;25.38;9.18;;;;;;;13.36;52.31;102312.34;4950381;28;114859;-62
2022/03/28 08:28:21;;;;;;;27.05;9.05;;;;;;;13.47;52.44;102314.63;4950942;28;114388;-62
2022/03/28 08:30:48;;;;;;;20.60;8.63;;;;;;;13.58;52.26;102317.81;4952112;28;124066;-62
2022/03/28 08:33:16;;;;;;;21.27;9.10;;;;;;;13.71;52.19;102308.50;4951617;28;123900;-62
2022/03/28 08:35:43;;;;;;;28.77;8.88;;;;;;;13.82;52.05;102306.34;4950479;28;114364;-62
2022/03/28 08:38:10;;;;;;;23.80;7.70;;;;;;;13.91;51.84;102304.25;4950612;28;114087;-62
2022/03/28 08:40:41;;;;;;;21.80;8.18;;;;;;;13.97;51.76;102293.38;4951552;28;123892;-62
2022/03/28 08:43:09;;;;;;;20.48;8.10;;;;;;;14.04;51.46;102300.22;4952763;28;123866;-62
2022/03/28 08:45:38;;;;;;;19.83;9.02;;;;;;;14.12;51.63;102302.63;4953476;28;114661;-62
2022/03/28 08:48:06;;;;;;;21.92;8.77;;;;;;;14.20;51.65;102305.84;4950499;28;114597;-62
2022/03/28 08:50:40;;;;;;;22.92;8.98;;;;;;;14.32;51.57;102299.22;4949723;28;124309;-62
2022/03/28 08:53:07;;;;;;;20.52;8.60;;;;;;;14.44;51.23;102293.41;4952016;28;123829;-61
2022/03/28 08:55:35;;;;;;;25.92;9.63;;;;;;;14.49;51.01;102296.78;4952870;28;114503;-62
2022/03/28 08:58:02;;;;;;;28.15;9.07;;;;;;;14.55;50.85;102293.88;4950002;28;113908;-62
2022/03/28 09:00:30;;;;;;;24.25;9.63;;;;;;;14.60;50.86;102289.28;4934582;28;123227;-62
2022/03/28 09:02:58;;;;;;;21.00;8.35;;;;;;;14.70;50.94;102289.78;4951114;28;124752;-62
2022/03/28 09:05:35;;;;;;;21.58;8.55;;;;;;;14.82;51.08;102288.41;4951743;28;115552;-61
2022/03/28 09:08:05;;;;;;;21.55;9.50;;;;;;;14.93;50.78;102285.34;4950663;28;115294;-62
2022/03/28 09:10:37;;;;;;;24.60;9.23;;;;;;;14.99;50.65;102280.63;4949491;28;124343;-62
2022/03/28 09:13:11;;;;;;;26.00;8.90;;;;;;;15.11;50.91;102289.06;4950884;28;124692;-62
2022/03/28 09:15:55;;;;;;;20.23;8.85;;;;;;;15.22;50.38;102286.81;4950508;28;114350;-62
2022/03/28 09:18:32;;;;;;;22.20;8.75;;;;;;;15.29;50.23;102288.28;4950155;28;114063;-62
2022/03/28 09:21:04;;;;;;;20.65;8.82;;;;;;;15.36;50.15;102286.25;4931904;28;124511;-62
2022/03/28 09:23:38;;;;;;;19.10;9.13;;;;;;;15.40;49.94;102284.31;4951774;28;124668;-62
2022/03/28 09:26:09;;;;;;;24.80;10.52;;;;;;;15.47;49.88;102281.31;4951602;28;114346;-62
2022/03/28 09:28:46;;;;;;;23.20;10.10;;;;;;;15.58;49.73;102275.53;4934770;28;112965;-61
2022/03/28 09:31:30;;;;;;;24.25;10.10;;;;;;;15.66;49.75;102264.50;4926226;28;124359;-61
2022/03/28 09:34:02;;;;;;;21.20;10.30;;;;;;;15.71;49.49;102271.38;4948761;28;124366;-61
2022/03/28 09:36:41;;;;;;;23.83;9.98;;;;;;;15.76;49.16;102266.75;4948569;28;114726;-61
2022/03/28 09:39:19;;;;;;;21.67;10.25;;;;;;;15.81;49.23;102268.34;4949192;28;114632;-61
2022/03/28 09:42:05;;;;;;;23.88;10.40;;;;;;;15.86;49.10;102266.31;4925936;28;123155;-61
2022/03/28 09:44:38;;;;;;;23.30;9.60;;;;;;;15.91;49.02;102266.97;4950073;28;126267;-60
2022/03/28 09:47:13;;;;;;;28.00;10.45;;;;;;;16.01;49.06;102260.31;4951390;28;114553;-61
2022/03/28 09:49:43;;;;;;;24.27;9.82;;;;;;;16.09;48.95;102260.81;4952379;28;113996;-61
2022/03/28 09:52:13;;;;;;;25.27;10.88;;;;;;;16.20;48.93;102254.09;4952079;28;124372;-61
2022/03/28 09:54:50;;;;;;;21.95;10.23;;;;;;;16.31;48.78;102251.78;4943901;28;123744;-61
2022/03/28 09:57:32;;;;;;;24.65;10.50;;;;;;;16.42;48.59;102254.81;4912714;28;115945;-61
2022/03/28 10:00:09;;;;;;;24.77;11.05;;;;;;;16.50;48.15;102246.44;4943590;28;115116;-62
2022/03/28 10:02:36;;;;;;;23.52;10.57;;;;;;;16.59;48.27;102250.50;4951359;28;124473;-62
2022/03/28 10:05:05;;;;;;;26.38;10.98;;;;;;;16.71;48.22;102239.22;4932341;28;123766;-62
2022/03/28 10:07:33;;;;;;;23.13;10.80;;;;;;;16.81;48.03;102240.50;4950643;28;114316;-62
2022/03/28 10:10:01;;;;;;;24.63;11.13;;;;;;;16.88;47.78;102236.59;4950658;28;113959;-63
2022/03/28 10:12:28;;;;;;;24.20;10.98;;;;;;;16.97;47.64;102240.66;4951258;28;125113;-62
2022/03/28 10:15:01;;;;;;;23.42;10.75;;;;;;;17.04;47.56;102241.19;4934403;28;122963;-62
2022/03/28 10:17:30;;;;;;;27.67;12.02;;;;;;;17.12;47.41;102229.16;4932429;28;114177;-62
2022/03/28 10:20:00;;;;;;;28.60;11.35;;;;;;;17.22;47.40;102218.84;4952824;28;96729;-62
2022/03/28 10:22:50;;;;;;;25.80;11.82;;;;;;;17.32;47.24;102220.09;4950216;28;124343;-62
2022/03/28 10:25:21;;;;;;;26.50;12.13;;;;;;;17.40;47.24;102219.69;4948868;28;124072;-62
2022/03/28 10:27:51;;;;;;;26.70;11.88;;;;;;;17.49;47.18;102226.41;4952241;28;114250;-62
2022/03/28 10:30:24;;;;;;;23.77;12.10;;;;;;;17.57;46.45;102221.50;4931258;28;114025;-63
2022/03/28 10:33:11;;;;;;;27.92;12.20;;;;;;;17.65;46.43;102208.59;4949427;28;124361;-62
2022/03/28 10:35:38;;;;;;;25.25;12.40;;;;;;;17.74;46.43;102209.03;4949302;28;123790;-62
2022/03/28 10:38:19;;;;;;;28.02;12.35;;;;;;;17.83;46.24;102203.19;4952439;28;114611;-62
2022/03/28 10:41:03;;;;;;;26.40;11.57;;;;;;;17.91;46.04;102206.34;4934886;28;113208;-62
2022/03/28 10:43:33;;;;;;;27.48;11.75;;;;;;;18.00;46.21;102195.09;4950602;28;124575;-63
2022/03/28 10:46:09;;;;;;;24.52;11.73;;;;;;;18.09;46.06;102194.59;4934622;28;123783;-63
2022/03/28 10:48:36;;;;;;;25.70;12.48;;;;;;;18.20;46.29;102195.84;4917361;28;114539;-63
2022/03/28 10:51:15;;;;;;;24.63;12.13;;;;;;;18.28;45.81;102193.59;4947437;28;114800;-62
2022/03/28 10:53:46;;;;;;;26.35;12.18;;;;;;;18.35;45.59;102184.25;4950672;28;124202;-63
2022/03/28 10:56:15;;;;;;;27.00;13.02;;;;;;;18.40;45.58;102187.56;4934103;28;123305;-63
2022/03/28 10:58:43;;;;;;;23.13;11.48;;;;;;;18.48;45.37;102185.28;4949209;28;115299;-63
2022/03/28 11:01:13;;;;;;;24.98;12.15;;;;;;;18.58;45.07;102179.41;4933653;28;113624;-62
2022/03/28 11:03:52;;;;;;;21.95;11.00;;;;;;;18.66;45.18;102171.75;4950237;28;124735;-62
2022/03/28 11:06:40;;;;;;;23.70;10.90;;;;;;;18.75;45.07;102171.22;4931465;28;123957;-62
2022/03/28 11:09:07;;;;;;;21.27;11.07;;;;;;;18.85;44.81;102164.41;4951557;28;114575;-62
2022/03/28 11:11:34;;;;;;;25.55;11.63;;;;;;;18.91;44.59;102156.94;4930806;28;113743;-62
2022/03/28 11:14:08;;;;;;;24.05;12.13;;;;;;;18.97;44.37;102159.28;4950157;28;123905;-63
2022/03/28 11:16:40;;;;;;;22.77;12.30;;;;;;;19.04;44.15;102155.22;4949342;28;123770;-64
2022/03/28 11:19:25;;;;;;;25.30;12.00;;;;;;;19.07;44.08;102155.06;4948244;28;114825;-62